sensor_id;sensor_type;location;lat;lon;timestamp;P1;durP1;ratioP1;P2;durP2;ratioP2
52918;SDS011;38793;52.690;6.812;2022-11-25T00:02:15;24.53;;;4.03;;
52918;SDS011;38793;52.690;6.812;2022-11-25T00:04:41;15.20;;;2.83;;
52918;SDS011;38793;52.690;6.812;2022-11-25T00:07:06;16.50;;;3.17;;
52918;SDS011;38793;52.690;6.812;2022-11-25T00:09:32;22.27;;;3.57;;
52918;SDS011;38793;52.690;6.812;2022-11-25T00:11:57;15.80;;;3.60;;
52918;SDS011;38793;52.690;6.812;2022-11-25T00:14:23;11.43;;;2.90;;
52918;SDS011;38793;52.690;6.812;2022-11-25T00:16:48;23.80;;;3.97;;
52918;SDS011;38793;52.690;6.812;2022-11-25T00:19:14;22.90;;;4.30;;
52918;SDS011;38793;52.690;6.812;2022-11-25T00:21:40;15.10;;;3.63;;
52918;SDS011;38793;52.690;6.812;2022-11-25T00:24:05;16.43;;;3.60;;
52918;SDS011;38793;52.690;6.812;2022-11-25T00:26:32;18.13;;;3.55;;
52918;SDS011;38793;52.690;6.812;2022-11-25T00:29:00;19.27;;;3.67;;
52918;SDS011;38793;52.690;6.812;2022-11-25T00:31:30;20.30;;;5.28;;
52918;SDS011;38793;52.690;6.812;2022-11-25T00:33:57;15.90;;;3.05;;
52918;SDS011;38793;52.690;6.812;2022-11-25T00:36:24;26.50;;;3.75;;
52918;SDS011;38793;52.690;6.812;2022-11-25T00:38:55;24.48;;;3.53;;
52918;SDS011;38793;52.690;6.812;2022-11-25T00:41:22;20.10;;;3.15;;
52918;SDS011;38793;52.690;6.812;2022-11-25T00:44:08;17.50;;;3.17;;
52918;SDS011;38793;52.690;6.812;2022-11-25T00:46:53;14.75;;;3.95;;
52918;SDS011;38793;52.690;6.812;2022-11-25T00:49:18;15.37;;;3.70;;
52918;SDS011;38793;52.690;6.812;2022-11-25T00:51:44;19.67;;;4.00;;
52918;SDS011;38793;52.690;6.812;2022-11-25T00:54:09;21.57;;;3.87;;
52918;SDS011;38793;52.690;6.812;2022-11-25T00:56:35;13.53;;;3.00;;
52918;SDS011;38793;52.690;6.812;2022-11-25T00:59:01;14.57;;;3.50;;
52918;SDS011;38793;52.690;6.812;2022-11-25T01:01:27;11.90;;;2.88;;
52918;SDS011;38793;52.690;6.812;2022-11-25T01:03:53;13.10;;;3.87;;
52918;SDS011;38793;52.690;6.812;2022-11-25T01:06:19;16.93;;;4.07;;
52918;SDS011;38793;52.690;6.812;2022-11-25T01:08:45;17.13;;;2.90;;
52918;SDS011;38793;52.690;6.812;2022-11-25T01:11:12;16.30;;;3.50;;
52918;SDS011;38793;52.690;6.812;2022-11-25T01:13:40;11.82;;;3.08;;
52918;SDS011;38793;52.690;6.812;2022-11-25T01:16:10;15.40;;;2.72;;
52918;SDS011;38793;52.690;6.812;2022-11-25T01:18:40;8.18;;;3.10;;
52918;SDS011;38793;52.690;6.812;2022-11-25T01:23:33;17.48;;;3.17;;
52918;SDS011;38793;52.690;6.812;2022-11-25T01:26:02;16.30;;;2.90;;
52918;SDS011;38793;52.690;6.812;2022-11-25T01:28:29;14.48;;;3.67;;
52918;SDS011;38793;52.690;6.812;2022-11-25T01:31:37;17.92;;;3.17;;
52918;SDS011;38793;52.690;6.812;2022-11-25T01:33:45;18.17;;;3.80;;
52918;SDS011;38793;52.690;6.812;2022-11-25T01:36:13;15.20;;;3.20;;
52918;SDS011;38793;52.690;6.812;2022-11-25T01:38:39;14.18;;;2.63;;
52918;SDS011;38793;52.690;6.812;2022-11-25T01:41:07;14.38;;;3.92;;
52918;SDS011;38793;52.690;6.812;2022-11-25T01:43:34;18.38;;;3.20;;
52918;SDS011;38793;52.690;6.812;2022-11-25T01:48:34;13.98;;;2.38;;
52918;SDS011;38793;52.690;6.812;2022-11-25T01:51:28;17.10;;;3.58;;
52918;SDS011;38793;52.690;6.812;2022-11-25T01:53:56;11.90;;;2.67;;
52918;SDS011;38793;52.690;6.812;2022-11-25T01:56:26;15.75;;;4.07;;
52918;SDS011;38793;52.690;6.812;2022-11-25T01:58:54;13.95;;;3.75;;
52918;SDS011;38793;52.690;6.812;2022-11-25T02:01:20;14.65;;;3.22;;
52918;SDS011;38793;52.690;6.812;2022-11-25T02:03:46;23.25;;;3.28;;
52918;SDS011;38793;52.690;6.812;2022-11-25T02:06:19;14.98;;;3.95;;
52918;SDS011;38793;52.690;6.812;2022-11-25T02:08:55;20.30;;;3.75;;
52918;SDS011;38793;52.690;6.812;2022-11-25T02:11:28;15.98;;;3.72;;
52918;SDS011;38793;52.690;6.812;2022-11-25T02:13:54;22.02;;;3.85;;
52918;SDS011;38793;52.690;6.812;2022-11-25T02:16:21;21.30;;;3.00;;
52918;SDS011;38793;52.690;6.812;2022-11-25T02:18:46;27.53;;;4.40;;
52918;SDS011;38793;52.690;6.812;2022-11-25T02:21:14;23.77;;;3.83;;
52918;SDS011;38793;52.690;6.812;2022-11-25T02:26:49;15.95;;;3.30;;
52918;SDS011;38793;52.690;6.812;2022-11-25T02:29:14;16.47;;;3.80;;
52918;SDS011;38793;52.690;6.812;2022-11-25T02:31:40;15.23;;;3.27;;
52918;SDS011;38793;52.690;6.812;2022-11-25T02:34:07;18.55;;;3.67;;
52918;SDS011;38793;52.690;6.812;2022-11-25T02:36:34;16.98;;;4.05;;
52918;SDS011;38793;52.690;6.812;2022-11-25T02:39:00;20.55;;;4.38;;
52918;SDS011;38793;52.690;6.812;2022-11-25T02:41:36;20.05;;;4.18;;
52918;SDS011;38793;52.690;6.812;2022-11-25T02:44:09;16.67;;;3.90;;
52918;SDS011;38793;52.690;6.812;2022-11-25T02:46:35;24.83;;;5.37;;
52918;SDS011;38793;52.690;6.812;2022-11-25T02:49:00;21.93;;;4.73;;
52918;SDS011;38793;52.690;6.812;2022-11-25T02:51:28;18.98;;;3.88;;
52918;SDS011;38793;52.690;6.812;2022-11-25T02:53:55;22.33;;;4.05;;
52918;SDS011;38793;52.690;6.812;2022-11-25T02:56:22;18.05;;;3.90;;
52918;SDS011;38793;52.690;6.812;2022-11-25T02:58:49;18.77;;;4.63;;
52918;SDS011;38793;52.690;6.812;2022-11-25T03:01:15;17.33;;;4.53;;
52918;SDS011;38793;52.690;6.812;2022-11-25T03:03:40;21.80;;;4.55;;
52918;SDS011;38793;52.690;6.812;2022-11-25T03:06:06;18.97;;;4.87;;
52918;SDS011;38793;52.690;6.812;2022-11-25T03:10:58;19.30;;;4.18;;
52918;SDS011;38793;52.690;6.812;2022-11-25T03:13:24;19.47;;;4.17;;
52918;SDS011;38793;52.690;6.812;2022-11-25T03:15:50;19.48;;;4.18;;
52918;SDS011;38793;52.690;6.812;2022-11-25T03:18:15;16.70;;;4.47;;
52918;SDS011;38793;52.690;6.812;2022-11-25T03:20:41;19.23;;;3.77;;
52918;SDS011;38793;52.690;6.812;2022-11-25T03:23:06;21.57;;;5.30;;
52918;SDS011;38793;52.690;6.812;2022-11-25T03:25:33;23.00;;;5.05;;
52918;SDS011;38793;52.690;6.812;2022-11-25T03:27:59;24.40;;;5.88;;
52918;SDS011;38793;52.690;6.812;2022-11-25T03:30:25;20.47;;;5.30;;
52918;SDS011;38793;52.690;6.812;2022-11-25T03:32:52;19.10;;;4.40;;
52918;SDS011;38793;52.690;6.812;2022-11-25T03:35:17;22.27;;;5.33;;
52918;SDS011;38793;52.690;6.812;2022-11-25T03:37:43;22.23;;;5.07;;
52918;SDS011;38793;52.690;6.812;2022-11-25T03:40:10;22.23;;;5.47;;
52918;SDS011;38793;52.690;6.812;2022-11-25T03:42:36;26.52;;;5.72;;
52918;SDS011;38793;52.690;6.812;2022-11-25T03:45:03;31.30;;;5.90;;
52918;SDS011;38793;52.690;6.812;2022-11-25T03:47:29;17.17;;;4.75;;
52918;SDS011;38793;52.690;6.812;2022-11-25T03:49:54;18.33;;;5.30;;
52918;SDS011;38793;52.690;6.812;2022-11-25T03:52:20;21.63;;;4.87;;
52918;SDS011;38793;52.690;6.812;2022-11-25T03:54:45;22.92;;;4.32;;
52918;SDS011;38793;52.690;6.812;2022-11-25T03:57:11;13.93;;;4.53;;
52918;SDS011;38793;52.690;6.812;2022-11-25T03:59:37;21.52;;;4.90;;
52918;SDS011;38793;52.690;6.812;2022-11-25T04:02:02;18.20;;;5.63;;
52918;SDS011;38793;52.690;6.812;2022-11-25T04:04:28;22.90;;;5.40;;
52918;SDS011;38793;52.690;6.812;2022-11-25T04:06:53;25.70;;;4.87;;
52918;SDS011;38793;52.690;6.812;2022-11-25T04:09:19;25.98;;;5.13;;
52918;SDS011;38793;52.690;6.812;2022-11-25T04:11:45;19.55;;;4.30;;
52918;SDS011;38793;52.690;6.812;2022-11-25T04:14:29;20.02;;;4.63;;
52918;SDS011;38793;52.690;6.812;2022-11-25T04:16:55;19.98;;;4.80;;
52918;SDS011;38793;52.690;6.812;2022-11-25T04:19:20;14.10;;;3.83;;
52918;SDS011;38793;52.690;6.812;2022-11-25T04:21:46;21.83;;;4.55;;
52918;SDS011;38793;52.690;6.812;2022-11-25T04:24:12;19.37;;;4.67;;
52918;SDS011;38793;52.690;6.812;2022-11-25T04:26:37;20.27;;;4.47;;
52918;SDS011;38793;52.690;6.812;2022-11-25T04:29:03;22.57;;;4.83;;
52918;SDS011;38793;52.690;6.812;2022-11-25T04:31:29;24.55;;;4.60;;
52918;SDS011;38793;52.690;6.812;2022-11-25T04:33:54;21.10;;;5.18;;
52918;SDS011;38793;52.690;6.812;2022-11-25T04:36:20;14.43;;;3.30;;
52918;SDS011;38793;52.690;6.812;2022-11-25T04:38:46;24.83;;;5.28;;
52918;SDS011;38793;52.690;6.812;2022-11-25T04:41:11;23.43;;;4.67;;
52918;SDS011;38793;52.690;6.812;2022-11-25T04:43:37;20.50;;;4.63;;
52918;SDS011;38793;52.690;6.812;2022-11-25T04:46:03;20.77;;;4.10;;
52918;SDS011;38793;52.690;6.812;2022-11-25T04:48:29;22.73;;;3.90;;
52918;SDS011;38793;52.690;6.812;2022-11-25T04:50:54;16.27;;;4.23;;
52918;SDS011;38793;52.690;6.812;2022-11-25T04:53:20;21.57;;;4.40;;
52918;SDS011;38793;52.690;6.812;2022-11-25T04:55:46;22.60;;;4.93;;
52918;SDS011;38793;52.690;6.812;2022-11-25T04:58:11;19.17;;;4.47;;
52918;SDS011;38793;52.690;6.812;2022-11-25T05:00:37;15.93;;;3.92;;
52918;SDS011;38793;52.690;6.812;2022-11-25T05:03:03;19.90;;;4.53;;
52918;SDS011;38793;52.690;6.812;2022-11-25T05:05:29;17.67;;;4.18;;
52918;SDS011;38793;52.690;6.812;2022-11-25T05:07:54;18.27;;;4.40;;
52918;SDS011;38793;52.690;6.812;2022-11-25T05:10:20;14.30;;;4.38;;
52918;SDS011;38793;52.690;6.812;2022-11-25T05:12:46;20.47;;;4.10;;
52918;SDS011;38793;52.690;6.812;2022-11-25T05:15:12;20.38;;;5.40;;
52918;SDS011;38793;52.690;6.812;2022-11-25T05:17:38;17.43;;;6.33;;
52918;SDS011;38793;52.690;6.812;2022-11-25T05:20:04;25.58;;;5.22;;
52918;SDS011;38793;52.690;6.812;2022-11-25T05:22:31;17.83;;;5.38;;
52918;SDS011;38793;52.690;6.812;2022-11-25T05:24:57;15.80;;;5.68;;
52918;SDS011;38793;52.690;6.812;2022-11-25T05:27:23;17.15;;;5.65;;
52918;SDS011;38793;52.690;6.812;2022-11-25T05:29:50;18.60;;;6.80;;
52918;SDS011;38793;52.690;6.812;2022-11-25T05:32:16;23.38;;;6.00;;
52918;SDS011;38793;52.690;6.812;2022-11-25T05:34:42;27.07;;;7.33;;
52918;SDS011;38793;52.690;6.812;2022-11-25T05:37:08;22.60;;;6.55;;
52918;SDS011;38793;52.690;6.812;2022-11-25T05:39:36;19.75;;;5.18;;
52918;SDS011;38793;52.690;6.812;2022-11-25T05:42:02;18.40;;;5.75;;
52918;SDS011;38793;52.690;6.812;2022-11-25T05:44:28;18.23;;;5.45;;
52918;SDS011;38793;52.690;6.812;2022-11-25T05:46:53;21.60;;;6.67;;
52918;SDS011;38793;52.690;6.812;2022-11-25T05:49:19;25.50;;;7.53;;
52918;SDS011;38793;52.690;6.812;2022-11-25T05:51:45;27.48;;;8.50;;
52918;SDS011;38793;52.690;6.812;2022-11-25T05:54:11;22.20;;;7.40;;
52918;SDS011;38793;52.690;6.812;2022-11-25T05:56:37;20.23;;;7.03;;
52918;SDS011;38793;52.690;6.812;2022-11-25T05:59:03;27.58;;;8.00;;
52918;SDS011;38793;52.690;6.812;2022-11-25T06:01:29;25.55;;;7.00;;
52918;SDS011;38793;52.690;6.812;2022-11-25T06:03:57;21.55;;;7.07;;
52918;SDS011;38793;52.690;6.812;2022-11-25T06:06:24;21.23;;;7.65;;
52918;SDS011;38793;52.690;6.812;2022-11-25T06:08:49;21.10;;;8.20;;
52918;SDS011;38793;52.690;6.812;2022-11-25T06:11:15;21.43;;;7.73;;
52918;SDS011;38793;52.690;6.812;2022-11-25T06:13:41;22.23;;;8.02;;
52918;SDS011;38793;52.690;6.812;2022-11-25T06:16:18;24.70;;;8.13;;
52918;SDS011;38793;52.690;6.812;2022-11-25T06:18:45;21.75;;;7.90;;
52918;SDS011;38793;52.690;6.812;2022-11-25T06:21:12;24.92;;;7.82;;
52918;SDS011;38793;52.690;6.812;2022-11-25T06:23:38;24.48;;;7.40;;
52918;SDS011;38793;52.690;6.812;2022-11-25T06:26:15;24.13;;;7.53;;
52918;SDS011;38793;52.690;6.812;2022-11-25T06:28:42;18.63;;;6.65;;
52918;SDS011;38793;52.690;6.812;2022-11-25T06:31:09;20.83;;;7.90;;
52918;SDS011;38793;52.690;6.812;2022-11-25T06:33:37;25.88;;;7.55;;
52918;SDS011;38793;52.690;6.812;2022-11-25T06:36:03;28.83;;;6.93;;
52918;SDS011;38793;52.690;6.812;2022-11-25T06:38:30;24.70;;;7.45;;
52918;SDS011;38793;52.690;6.812;2022-11-25T06:40:59;18.60;;;6.95;;
52918;SDS011;38793;52.690;6.812;2022-11-25T06:43:26;22.48;;;6.40;;
52918;SDS011;38793;52.690;6.812;2022-11-25T06:45:51;17.73;;;6.13;;
52918;SDS011;38793;52.690;6.812;2022-11-25T06:48:17;24.80;;;6.43;;
52918;SDS011;38793;52.690;6.812;2022-11-25T06:50:42;24.30;;;6.53;;
52918;SDS011;38793;52.690;6.812;2022-11-25T06:53:08;16.80;;;5.40;;
52918;SDS011;38793;52.690;6.812;2022-11-25T06:55:33;14.67;;;5.47;;
52918;SDS011;38793;52.690;6.812;2022-11-25T06:57:59;19.57;;;5.70;;
52918;SDS011;38793;52.690;6.812;2022-11-25T07:00:24;18.33;;;6.03;;
52918;SDS011;38793;52.690;6.812;2022-11-25T07:02:50;18.23;;;5.23;;
52918;SDS011;38793;52.690;6.812;2022-11-25T07:05:15;14.57;;;5.07;;
52918;SDS011;38793;52.690;6.812;2022-11-25T07:07:41;18.10;;;4.67;;
52918;SDS011;38793;52.690;6.812;2022-11-25T07:10:07;13.53;;;5.60;;
52918;SDS011;38793;52.690;6.812;2022-11-25T07:12:32;13.88;;;4.47;;
52918;SDS011;38793;52.690;6.812;2022-11-25T07:14:58;13.40;;;4.90;;
52918;SDS011;38793;52.690;6.812;2022-11-25T07:17:23;13.37;;;4.30;;
52918;SDS011;38793;52.690;6.812;2022-11-25T07:19:49;17.73;;;5.37;;
52918;SDS011;38793;52.690;6.812;2022-11-25T07:22:14;11.40;;;4.33;;
52918;SDS011;38793;52.690;6.812;2022-11-25T07:24:40;15.93;;;4.77;;
52918;SDS011;38793;52.690;6.812;2022-11-25T07:27:05;16.50;;;4.13;;
52918;SDS011;38793;52.690;6.812;2022-11-25T07:29:32;12.40;;;3.97;;
52918;SDS011;38793;52.690;6.812;2022-11-25T07:31:59;14.65;;;4.53;;
52918;SDS011;38793;52.690;6.812;2022-11-25T07:34:25;15.97;;;4.47;;
52918;SDS011;38793;52.690;6.812;2022-11-25T07:36:50;11.57;;;3.97;;
52918;SDS011;38793;52.690;6.812;2022-11-25T07:39:17;9.83;;;3.90;;
52918;SDS011;38793;52.690;6.812;2022-11-25T07:41:50;13.52;;;4.32;;
52918;SDS011;38793;52.690;6.812;2022-11-25T07:44:17;16.88;;;4.10;;
52918;SDS011;38793;52.690;6.812;2022-11-25T07:46:43;11.70;;;4.30;;
52918;SDS011;38793;52.690;6.812;2022-11-25T07:49:12;15.05;;;5.15;;
52918;SDS011;38793;52.690;6.812;2022-11-25T07:51:47;19.73;;;4.45;;
52918;SDS011;38793;52.690;6.812;2022-11-25T07:54:14;9.10;;;4.60;;
52918;SDS011;38793;52.690;6.812;2022-11-25T07:59:08;12.70;;;4.07;;
52918;SDS011;38793;52.690;6.812;2022-11-25T08:01:36;10.43;;;3.92;;
52918;SDS011;38793;52.690;6.812;2022-11-25T08:04:01;12.27;;;4.63;;
52918;SDS011;38793;52.690;6.812;2022-11-25T08:06:27;15.97;;;4.00;;
52918;SDS011;38793;52.690;6.812;2022-11-25T08:08:54;16.35;;;4.38;;
52918;SDS011;38793;52.690;6.812;2022-11-25T08:11:25;17.40;;;4.15;;
52918;SDS011;38793;52.690;6.812;2022-11-25T08:13:53;14.05;;;4.65;;
52918;SDS011;38793;52.690;6.812;2022-11-25T08:16:20;10.52;;;3.95;;
52918;SDS011;38793;52.690;6.812;2022-11-25T08:18:47;17.20;;;3.67;;
52918;SDS011;38793;52.690;6.812;2022-11-25T08:21:14;10.75;;;3.22;;
52918;SDS011;38793;52.690;6.812;2022-11-25T08:23:40;10.93;;;3.95;;
52918;SDS011;38793;52.690;6.812;2022-11-25T08:26:09;17.52;;;3.53;;
52918;SDS011;38793;52.690;6.812;2022-11-25T08:28:38;9.55;;;4.05;;
52918;SDS011;38793;52.690;6.812;2022-11-25T08:31:15;11.68;;;3.47;;
52918;SDS011;38793;52.690;6.812;2022-11-25T08:33:42;17.55;;;4.93;;
52918;SDS011;38793;52.690;6.812;2022-11-25T08:36:08;9.33;;;3.43;;
52918;SDS011;38793;52.690;6.812;2022-11-25T08:38:34;12.23;;;3.45;;
52918;SDS011;38793;52.690;6.812;2022-11-25T08:41:00;12.02;;;3.80;;
52918;SDS011;38793;52.690;6.812;2022-11-25T08:43:26;9.88;;;3.38;;
52918;SDS011;38793;52.690;6.812;2022-11-25T08:45:52;9.68;;;2.55;;
52918;SDS011;38793;52.690;6.812;2022-11-25T08:48:18;12.37;;;3.33;;
52918;SDS011;38793;52.690;6.812;2022-11-25T08:50:52;15.00;;;4.22;;
52918;SDS011;38793;52.690;6.812;2022-11-25T08:53:19;9.27;;;2.55;;
52918;SDS011;38793;52.690;6.812;2022-11-25T08:55:46;9.55;;;2.42;;
52918;SDS011;38793;52.690;6.812;2022-11-25T08:58:11;7.45;;;2.85;;
52918;SDS011;38793;52.690;6.812;2022-11-25T09:00:38;7.50;;;2.60;;
52918;SDS011;38793;52.690;6.812;2022-11-25T09:03:05;5.63;;;2.15;;
52918;SDS011;38793;52.690;6.812;2022-11-25T09:05:31;9.75;;;3.13;;
52918;SDS011;38793;52.690;6.812;2022-11-25T09:08:03;13.25;;;2.60;;
52918;SDS011;38793;52.690;6.812;2022-11-25T09:10:31;10.35;;;2.92;;
52918;SDS011;38793;52.690;6.812;2022-11-25T09:12:57;10.52;;;2.75;;
52918;SDS011;38793;52.690;6.812;2022-11-25T09:15:24;8.82;;;2.72;;
52918;SDS011;38793;52.690;6.812;2022-11-25T09:18:00;7.13;;;3.20;;
52918;SDS011;38793;52.690;6.812;2022-11-25T09:20:31;8.07;;;2.38;;
52918;SDS011;38793;52.690;6.812;2022-11-25T09:22:58;6.97;;;2.78;;
52918;SDS011;38793;52.690;6.812;2022-11-25T09:25:24;7.68;;;2.60;;
52918;SDS011;38793;52.690;6.812;2022-11-25T09:27:49;5.30;;;2.22;;
52918;SDS011;38793;52.690;6.812;2022-11-25T09:30:15;14.55;;;3.28;;
52918;SDS011;38793;52.690;6.812;2022-11-25T09:32:41;8.57;;;2.55;;
52918;SDS011;38793;52.690;6.812;2022-11-25T09:35:07;9.57;;;2.65;;
52918;SDS011;38793;52.690;6.812;2022-11-25T09:37:33;5.63;;;2.00;;
52918;SDS011;38793;52.690;6.812;2022-11-25T09:39:58;5.18;;;1.75;;
52918;SDS011;38793;52.690;6.812;2022-11-25T09:42:33;9.55;;;2.00;;
52918;SDS011;38793;52.690;6.812;2022-11-25T09:45:21;5.22;;;2.40;;
52918;SDS011;38793;52.690;6.812;2022-11-25T09:48:18;8.70;;;2.60;;
52918;SDS011;38793;52.690;6.812;2022-11-25T09:51:07;6.63;;;2.45;;
52918;SDS011;38793;52.690;6.812;2022-11-25T09:53:52;6.93;;;1.92;;
52918;SDS011;38793;52.690;6.812;2022-11-25T09:58:52;6.00;;;2.13;;
52918;SDS011;38793;52.690;6.812;2022-11-25T10:01:51;7.20;;;2.00;;
52918;SDS011;38793;52.690;6.812;2022-11-25T10:04:28;9.20;;;1.73;;
52918;SDS011;38793;52.690;6.812;2022-11-25T10:06:57;9.10;;;2.60;;
52918;SDS011;38793;52.690;6.812;2022-11-25T10:09:30;4.82;;;1.98;;
52918;SDS011;38793;52.690;6.812;2022-11-25T10:12:05;4.00;;;1.55;;
52918;SDS011;38793;52.690;6.812;2022-11-25T10:14:44;6.63;;;2.10;;
52918;SDS011;38793;52.690;6.812;2022-11-25T10:20:10;7.57;;;1.83;;
52918;SDS011;38793;52.690;6.812;2022-11-25T10:22:41;10.75;;;2.33;;
52918;SDS011;38793;52.690;6.812;2022-11-25T10:25:43;10.32;;;2.90;;
52918;SDS011;38793;52.690;6.812;2022-11-25T10:30:47;3.53;;;1.67;;
52918;SDS011;38793;52.690;6.812;2022-11-25T10:33:18;6.55;;;1.42;;
52918;SDS011;38793;52.690;6.812;2022-11-25T10:38:25;9.75;;;2.03;;
52918;SDS011;38793;52.690;6.812;2022-11-25T10:40:55;5.22;;;1.08;;
52918;SDS011;38793;52.690;6.812;2022-11-25T10:43:22;4.35;;;1.38;;
52918;SDS011;38793;52.690;6.812;2022-11-25T10:45:50;6.00;;;1.58;;
52918;SDS011;38793;52.690;6.812;2022-11-25T10:51:29;5.60;;;1.48;;
52918;SDS011;38793;52.690;6.812;2022-11-25T10:54:07;8.30;;;2.05;;
52918;SDS011;38793;52.690;6.812;2022-11-25T10:56:54;8.00;;;1.65;;
52918;SDS011;38793;52.690;6.812;2022-11-25T10:59:31;5.00;;;2.13;;
52918;SDS011;38793;52.690;6.812;2022-11-25T11:02:21;6.47;;;1.50;;
52918;SDS011;38793;52.690;6.812;2022-11-25T11:04:51;4.75;;;1.92;;
52918;SDS011;38793;52.690;6.812;2022-11-25T11:07:22;7.95;;;1.75;;
52918;SDS011;38793;52.690;6.812;2022-11-25T11:09:49;6.35;;;1.52;;
52918;SDS011;38793;52.690;6.812;2022-11-25T11:12:18;7.68;;;1.33;;
52918;SDS011;38793;52.690;6.812;2022-11-25T11:14:52;7.90;;;1.88;;
52918;SDS011;38793;52.690;6.812;2022-11-25T11:17:37;6.45;;;1.77;;
52918;SDS011;38793;52.690;6.812;2022-11-25T11:22:35;10.70;;;2.22;;
52918;SDS011;38793;52.690;6.812;2022-11-25T11:25:21;7.72;;;1.88;;
52918;SDS011;38793;52.690;6.812;2022-11-25T11:27:55;8.40;;;1.85;;
52918;SDS011;38793;52.690;6.812;2022-11-25T11:32:56;11.75;;;2.03;;
52918;SDS011;38793;52.690;6.812;2022-11-25T11:35:36;8.18;;;1.73;;
52918;SDS011;38793;52.690;6.812;2022-11-25T11:41:22;7.78;;;1.20;;
52918;SDS011;38793;52.690;6.812;2022-11-25T11:44:12;6.32;;;1.42;;
52918;SDS011;38793;52.690;6.812;2022-11-25T11:46:58;6.57;;;1.65;;
52918;SDS011;38793;52.690;6.812;2022-11-25T11:52:21;5.38;;;1.17;;
52918;SDS011;38793;52.690;6.812;2022-11-25T11:58:04;4.68;;;1.05;;
52918;SDS011;38793;52.690;6.812;2022-11-25T12:00:39;8.00;;;1.60;;
52918;SDS011;38793;52.690;6.812;2022-11-25T12:03:19;6.68;;;1.38;;
52918;SDS011;38793;52.690;6.812;2022-11-25T12:05:48;8.48;;;1.65;;
52918;SDS011;38793;52.690;6.812;2022-11-25T12:11:20;5.53;;;1.10;;
52918;SDS011;38793;52.690;6.812;2022-11-25T12:14:05;5.38;;;1.38;;
52918;SDS011;38793;52.690;6.812;2022-11-25T12:16:39;5.93;;;1.00;;
52918;SDS011;38793;52.690;6.812;2022-11-25T12:19:13;11.45;;;1.35;;
52918;SDS011;38793;52.690;6.812;2022-11-25T12:22:04;6.47;;;1.33;;
52918;SDS011;38793;52.690;6.812;2022-11-25T12:24:38;4.95;;;1.58;;
52918;SDS011;38793;52.690;6.812;2022-11-25T12:27:27;10.15;;;1.80;;
52918;SDS011;38793;52.690;6.812;2022-11-25T12:30:11;4.53;;;1.00;;
52918;SDS011;38793;52.690;6.812;2022-11-25T12:32:57;9.75;;;1.38;;
52918;SDS011;38793;52.690;6.812;2022-11-25T12:40:47;6.25;;;1.42;;
52918;SDS011;38793;52.690;6.812;2022-11-25T12:43:23;13.00;;;2.33;;
52918;SDS011;38793;52.690;6.812;2022-11-25T12:48:48;15.75;;;2.30;;
52918;SDS011;38793;52.690;6.812;2022-11-25T12:56:51;9.52;;;1.73;;
52918;SDS011;38793;52.690;6.812;2022-11-25T12:59:58;9.90;;;1.73;;
52918;SDS011;38793;52.690;6.812;2022-11-25T13:11:22;15.13;;;2.10;;
52918;SDS011;38793;52.690;6.812;2022-11-25T13:14:00;7.88;;;1.90;;
52918;SDS011;38793;52.690;6.812;2022-11-25T13:16:37;9.52;;;1.75;;
52918;SDS011;38793;52.690;6.812;2022-11-25T13:19:07;10.32;;;1.85;;
52918;SDS011;38793;52.690;6.812;2022-11-25T13:21:36;15.98;;;2.40;;
52918;SDS011;38793;52.690;6.812;2022-11-25T13:24:31;7.72;;;1.58;;
52918;SDS011;38793;52.690;6.812;2022-11-25T13:26:58;8.52;;;2.03;;
52918;SDS011;38793;52.690;6.812;2022-11-25T13:31:55;12.47;;;1.80;;
52918;SDS011;38793;52.690;6.812;2022-11-25T13:34:27;10.52;;;2.13;;
52918;SDS011;38793;52.690;6.812;2022-11-25T13:36:55;10.88;;;1.65;;
52918;SDS011;38793;52.690;6.812;2022-11-25T13:41:48;8.13;;;1.33;;
52918;SDS011;38793;52.690;6.812;2022-11-25T13:44:35;12.32;;;1.70;;
52918;SDS011;38793;52.690;6.812;2022-11-25T13:47:21;9.80;;;1.63;;
52918;SDS011;38793;52.690;6.812;2022-11-25T13:49:54;8.90;;;1.95;;
52918;SDS011;38793;52.690;6.812;2022-11-25T13:54:56;11.20;;;1.58;;
52918;SDS011;38793;52.690;6.812;2022-11-25T13:57:27;13.93;;;1.92;;
52918;SDS011;38793;52.690;6.812;2022-11-25T13:59:59;12.63;;;2.08;;
52918;SDS011;38793;52.690;6.812;2022-11-25T14:02:43;12.68;;;2.17;;
52918;SDS011;38793;52.690;6.812;2022-11-25T14:08:08;9.88;;;2.38;;
52918;SDS011;38793;52.690;6.812;2022-11-25T14:16:47;12.07;;;1.45;;
52918;SDS011;38793;52.690;6.812;2022-11-25T14:24:43;10.23;;;2.38;;
52918;SDS011;38793;52.690;6.812;2022-11-25T14:27:14;13.65;;;3.03;;
52918;SDS011;38793;52.690;6.812;2022-11-25T14:29:46;7.53;;;2.15;;
52918;SDS011;38793;52.690;6.812;2022-11-25T14:34:57;11.63;;;2.00;;
52918;SDS011;38793;52.690;6.812;2022-11-25T14:37:38;8.05;;;2.22;;
52918;SDS011;38793;52.690;6.812;2022-11-25T14:40:17;11.20;;;2.35;;
52918;SDS011;38793;52.690;6.812;2022-11-25T14:42:57;7.38;;;1.98;;
52918;SDS011;38793;52.690;6.812;2022-11-25T14:45:28;9.20;;;1.75;;
52918;SDS011;38793;52.690;6.812;2022-11-25T14:47:57;13.80;;;2.97;;
52918;SDS011;38793;52.690;6.812;2022-11-25T14:50:36;11.93;;;2.55;;
52918;SDS011;38793;52.690;6.812;2022-11-25T14:53:09;14.40;;;2.38;;
52918;SDS011;38793;52.690;6.812;2022-11-25T14:55:36;20.88;;;3.20;;
52918;SDS011;38793;52.690;6.812;2022-11-25T14:58:02;10.82;;;2.45;;
52918;SDS011;38793;52.690;6.812;2022-11-25T15:00:28;12.23;;;2.80;;
52918;SDS011;38793;52.690;6.812;2022-11-25T15:02:55;13.68;;;1.63;;
52918;SDS011;38793;52.690;6.812;2022-11-25T15:05:22;10.93;;;1.92;;
52918;SDS011;38793;52.690;6.812;2022-11-25T15:07:58;18.50;;;2.30;;
52918;SDS011;38793;52.690;6.812;2022-11-25T15:13:12;15.55;;;2.83;;
52918;SDS011;38793;52.690;6.812;2022-11-25T15:15:46;9.18;;;2.15;;
52918;SDS011;38793;52.690;6.812;2022-11-25T15:18:21;7.97;;;2.13;;
52918;SDS011;38793;52.690;6.812;2022-11-25T15:20:55;9.23;;;1.60;;
52918;SDS011;38793;52.690;6.812;2022-11-25T15:23:30;15.88;;;2.22;;
52918;SDS011;38793;52.690;6.812;2022-11-25T15:26:00;10.90;;;1.95;;
52918;SDS011;38793;52.690;6.812;2022-11-25T15:28:36;9.10;;;1.40;;
52918;SDS011;38793;52.690;6.812;2022-11-25T15:31:07;21.15;;;2.97;;
52918;SDS011;38793;52.690;6.812;2022-11-25T15:33:36;13.07;;;2.70;;
52918;SDS011;38793;52.690;6.812;2022-11-25T15:36:02;16.42;;;3.33;;
52918;SDS011;38793;52.690;6.812;2022-11-25T15:38:36;9.48;;;1.90;;
52918;SDS011;38793;52.690;6.812;2022-11-25T15:41:04;21.87;;;3.20;;
52918;SDS011;38793;52.690;6.812;2022-11-25T15:43:37;13.60;;;2.60;;
52918;SDS011;38793;52.690;6.812;2022-11-25T15:46:08;16.70;;;3.42;;
52918;SDS011;38793;52.690;6.812;2022-11-25T15:48:38;12.55;;;3.58;;
52918;SDS011;38793;52.690;6.812;2022-11-25T15:54:06;12.90;;;3.20;;
52918;SDS011;38793;52.690;6.812;2022-11-25T15:57:00;14.10;;;3.55;;
52918;SDS011;38793;52.690;6.812;2022-11-25T15:59:36;18.50;;;5.90;;
52918;SDS011;38793;52.690;6.812;2022-11-25T16:02:29;11.35;;;1.85;;
52918;SDS011;38793;52.690;6.812;2022-11-25T16:15:46;14.07;;;2.78;;
52918;SDS011;38793;52.690;6.812;2022-11-25T16:18:14;9.35;;;2.67;;
52918;SDS011;38793;52.690;6.812;2022-11-25T16:21:15;13.98;;;2.67;;
52918;SDS011;38793;52.690;6.812;2022-11-25T16:23:56;15.05;;;4.55;;
